sensor_id;sensor_type;location;lat;lon;timestamp;temperature;humidity
14517;DHT22;7344;50.864;4.362;2023-09-30T00:02:07;14.80;99.90
14517;DHT22;7344;50.864;4.362;2023-09-30T00:04:33;14.90;99.90
14517;DHT22;7344;50.864;4.362;2023-09-30T00:06:59;14.90;99.90
14517;DHT22;7344;50.864;4.362;2023-09-30T00:09:25;14.90;99.90
14517;DHT22;7344;50.864;4.362;2023-09-30T00:11:50;14.80;99.90
14517;DHT22;7344;50.864;4.362;2023-09-30T00:14:16;14.80;99.90
14517;DHT22;7344;50.864;4.362;2023-09-30T00:16:42;14.70;99.90
14517;DHT22;7344;50.864;4.362;2023-09-30T00:19:08;14.70;99.90
14517;DHT22;7344;50.864;4.362;2023-09-30T00:21:35;14.60;99.90
14517;DHT22;7344;50.864;4.362;2023-09-30T00:24:00;14.60;99.90
14517;DHT22;7344;50.864;4.362;2023-09-30T00:26:26;14.50;99.90
14517;DHT22;7344;50.864;4.362;2023-09-30T00:28:51;14.40;99.90
14517;DHT22;7344;50.864;4.362;2023-09-30T00:31:17;14.40;99.90
14517;DHT22;7344;50.864;4.362;2023-09-30T00:33:43;14.40;99.90
14517;DHT22;7344;50.864;4.362;2023-09-30T00:36:09;14.40;99.90
14517;DHT22;7344;50.864;4.362;2023-09-30T00:38:36;14.40;99.90
14517;DHT22;7344;50.864;4.362;2023-09-30T00:41:02;14.30;99.90
14517;DHT22;7344;50.864;4.362;2023-09-30T00:43:28;14.30;99.90
14517;DHT22;7344;50.864;4.362;2023-09-30T00:48:49;14.30;99.90
14517;DHT22;7344;50.864;4.362;2023-09-30T00:51:14;14.30;99.90
14517;DHT22;7344;50.864;4.362;2023-09-30T00:53:40;14.30;99.90
14517;DHT22;7344;50.864;4.362;2023-09-30T00:56:06;14.30;99.90
14517;DHT22;7344;50.864;4.362;2023-09-30T00:58:34;14.40;99.90
14517;DHT22;7344;50.864;4.362;2023-09-30T01:00:59;14.30;99.90
14517;DHT22;7344;50.864;4.362;2023-09-30T01:03:25;14.40;99.90
14517;DHT22;7344;50.864;4.362;2023-09-30T01:05:51;14.40;99.90
14517;DHT22;7344;50.864;4.362;2023-09-30T01:08:18;14.40;99.90
14517;DHT22;7344;50.864;4.362;2023-09-30T01:10:44;14.40;99.90
14517;DHT22;7344;50.864;4.362;2023-09-30T01:13:09;14.50;99.90
14517;DHT22;7344;50.864;4.362;2023-09-30T01:15:35;14.50;99.90
14517;DHT22;7344;50.864;4.362;2023-09-30T01:18:03;14.50;99.90
14517;DHT22;7344;50.864;4.362;2023-09-30T01:20:28;14.50;99.90
14517;DHT22;7344;50.864;4.362;2023-09-30T01:22:55;14.50;99.90
14517;DHT22;7344;50.864;4.362;2023-09-30T01:25:22;14.50;99.90
14517;DHT22;7344;50.864;4.362;2023-09-30T01:27:48;14.50;99.90
14517;DHT22;7344;50.864;4.362;2023-09-30T01:30:13;14.50;99.90
14517;DHT22;7344;50.864;4.362;2023-09-30T01:32:39;14.40;99.90
14517;DHT22;7344;50.864;4.362;2023-09-30T01:35:06;14.40;99.90
14517;DHT22;7344;50.864;4.362;2023-09-30T01:37:31;14.40;99.90
14517;DHT22;7344;50.864;4.362;2023-09-30T01:39:57;14.40;99.90
14517;DHT22;7344;50.864;4.362;2023-09-30T01:42:23;14.40;99.90
14517;DHT22;7344;50.864;4.362;2023-09-30T01:44:48;14.30;99.90
14517;DHT22;7344;50.864;4.362;2023-09-30T01:47:14;14.20;99.90
14517;DHT22;7344;50.864;4.362;2023-09-30T01:49:39;14.20;99.90
14517;DHT22;7344;50.864;4.362;2023-09-30T01:52:05;14.20;99.90
14517;DHT22;7344;50.864;4.362;2023-09-30T01:54:31;14.20;99.90
14517;DHT22;7344;50.864;4.362;2023-09-30T01:56:56;14.20;99.90
14517;DHT22;7344;50.864;4.362;2023-09-30T01:59:22;14.20;99.90
14517;DHT22;7344;50.864;4.362;2023-09-30T02:01:48;14.20;99.90
14517;DHT22;7344;50.864;4.362;2023-09-30T02:04:14;14.20;99.90
14517;DHT22;7344;50.864;4.362;2023-09-30T02:06:41;14.10;99.90
14517;DHT22;7344;50.864;4.362;2023-09-30T02:09:07;14.10;99.90
14517;DHT22;7344;50.864;4.362;2023-09-30T02:11:37;14.00;99.90
14517;DHT22;7344;50.864;4.362;2023-09-30T02:14:03;14.00;99.90
14517;DHT22;7344;50.864;4.362;2023-09-30T02:16:31;14.10;99.90
14517;DHT22;7344;50.864;4.362;2023-09-30T02:18:57;14.00;99.90
14517;DHT22;7344;50.864;4.362;2023-09-30T02:21:22;14.00;99.90
14517;DHT22;7344;50.864;4.362;2023-09-30T02:23:48;14.00;99.90
14517;DHT22;7344;50.864;4.362;2023-09-30T02:26:17;14.00;99.90
14517;DHT22;7344;50.864;4.362;2023-09-30T02:28:43;13.90;99.90
14517;DHT22;7344;50.864;4.362;2023-09-30T02:31:09;13.90;99.90
14517;DHT22;7344;50.864;4.362;2023-09-30T02:33:34;13.90;99.90
14517;DHT22;7344;50.864;4.362;2023-09-30T02:36:07;13.90;99.90
14517;DHT22;7344;50.864;4.362;2023-09-30T02:38:33;13.90;99.90
14517;DHT22;7344;50.864;4.362;2023-09-30T02:40:58;13.80;99.90
14517;DHT22;7344;50.864;4.362;2023-09-30T02:43:24;13.80;99.90
14517;DHT22;7344;50.864;4.362;2023-09-30T02:45:49;13.80;99.90
14517;DHT22;7344;50.864;4.362;2023-09-30T02:48:15;13.90;99.90
14517;DHT22;7344;50.864;4.362;2023-09-30T02:50:44;13.80;99.90
14517;DHT22;7344;50.864;4.362;2023-09-30T02:53:11;13.80;99.90
14517;DHT22;7344;50.864;4.362;2023-09-30T02:55:37;13.80;99.90
14517;DHT22;7344;50.864;4.362;2023-09-30T02:58:03;13.70;99.90
14517;DHT22;7344;50.864;4.362;2023-09-30T03:00:29;13.80;99.90
14517;DHT22;7344;50.864;4.362;2023-09-30T03:03:00;13.80;99.90
14517;DHT22;7344;50.864;4.362;2023-09-30T03:05:25;13.70;99.90
14517;DHT22;7344;50.864;4.362;2023-09-30T03:07:53;13.80;99.90
14517;DHT22;7344;50.864;4.362;2023-09-30T03:10:20;13.80;99.90
14517;DHT22;7344;50.864;4.362;2023-09-30T03:12:49;13.80;99.90
14517;DHT22;7344;50.864;4.362;2023-09-30T03:15:16;13.70;99.90
14517;DHT22;7344;50.864;4.362;2023-09-30T03:17:42;13.70;99.90
14517;DHT22;7344;50.864;4.362;2023-09-30T03:20:09;13.70;99.90
14517;DHT22;7344;50.864;4.362;2023-09-30T03:22:42;13.80;99.90
14517;DHT22;7344;50.864;4.362;2023-09-30T03:25:12;13.70;99.90
14517;DHT22;7344;50.864;4.362;2023-09-30T03:27:38;13.70;99.90
14517;DHT22;7344;50.864;4.362;2023-09-30T03:30:07;13.70;99.90
14517;DHT22;7344;50.864;4.362;2023-09-30T03:32:34;13.70;99.90
14517;DHT22;7344;50.864;4.362;2023-09-30T03:35:04;13.60;99.90
14517;DHT22;7344;50.864;4.362;2023-09-30T03:37:31;13.60;99.90
14517;DHT22;7344;50.864;4.362;2023-09-30T03:39:57;13.70;99.90
14517;DHT22;7344;50.864;4.362;2023-09-30T03:42:23;13.60;99.90
14517;DHT22;7344;50.864;4.362;2023-09-30T03:44:48;13.60;99.90
14517;DHT22;7344;50.864;4.362;2023-09-30T03:47:18;13.60;99.90
14517;DHT22;7344;50.864;4.362;2023-09-30T03:49:44;13.60;99.90
14517;DHT22;7344;50.864;4.362;2023-09-30T03:52:10;13.60;99.90
14517;DHT22;7344;50.864;4.362;2023-09-30T03:54:36;13.60;99.90
14517;DHT22;7344;50.864;4.362;2023-09-30T03:57:03;13.50;99.90
14517;DHT22;7344;50.864;4.362;2023-09-30T03:59:29;13.60;99.90
14517;DHT22;7344;50.864;4.362;2023-09-30T04:01:55;13.50;99.90
14517;DHT22;7344;50.864;4.362;2023-09-30T04:04:24;13.50;99.90
14517;DHT22;7344;50.864;4.362;2023-09-30T04:06:51;13.50;99.90
14517;DHT22;7344;50.864;4.362;2023-09-30T04:09:17;13.50;99.90
14517;DHT22;7344;50.864;4.362;2023-09-30T04:11:43;13.50;99.90
14517;DHT22;7344;50.864;4.362;2023-09-30T04:14:09;13.50;99.90
14517;DHT22;7344;50.864;4.362;2023-09-30T04:16:35;13.50;99.90
14517;DHT22;7344;50.864;4.362;2023-09-30T04:19:03;13.50;99.90
14517;DHT22;7344;50.864;4.362;2023-09-30T04:21:29;13.50;99.90
14517;DHT22;7344;50.864;4.362;2023-09-30T04:23:57;13.40;99.90
14517;DHT22;7344;50.864;4.362;2023-09-30T04:26:23;13.40;99.90
14517;DHT22;7344;50.864;4.362;2023-09-30T04:28:49;13.40;99.90
14517;DHT22;7344;50.864;4.362;2023-09-30T04:31:14;13.40;99.90
14517;DHT22;7344;50.864;4.362;2023-09-30T04:33:40;13.40;99.90
14517;DHT22;7344;50.864;4.362;2023-09-30T04:36:06;13.40;99.90
14517;DHT22;7344;50.864;4.362;2023-09-30T04:38:34;13.30;99.90
14517;DHT22;7344;50.864;4.362;2023-09-30T04:41:03;13.30;99.90
14517;DHT22;7344;50.864;4.362;2023-09-30T04:43:28;13.30;99.90
14517;DHT22;7344;50.864;4.362;2023-09-30T04:45:55;13.30;99.90
14517;DHT22;7344;50.864;4.362;2023-09-30T04:48:23;13.20;99.90
14517;DHT22;7344;50.864;4.362;2023-09-30T04:50:49;13.30;99.90
14517;DHT22;7344;50.864;4.362;2023-09-30T04:53:14;13.20;99.90
14517;DHT22;7344;50.864;4.362;2023-09-30T04:55:43;13.30;99.90
14517;DHT22;7344;50.864;4.362;2023-09-30T04:58:08;13.20;99.90
14517;DHT22;7344;50.864;4.362;2023-09-30T05:00:34;13.20;99.90
14517;DHT22;7344;50.864;4.362;2023-09-30T05:03:00;13.20;99.90
14517;DHT22;7344;50.864;4.362;2023-09-30T05:05:26;13.20;99.90
14517;DHT22;7344;50.864;4.362;2023-09-30T05:07:54;13.20;99.90
14517;DHT22;7344;50.864;4.362;2023-09-30T05:10:19;13.20;99.90
14517;DHT22;7344;50.864;4.362;2023-09-30T05:12:45;13.20;99.90
14517;DHT22;7344;50.864;4.362;2023-09-30T05:15:12;13.10;99.90
14517;DHT22;7344;50.864;4.362;2023-09-30T05:17:38;13.10;99.90
14517;DHT22;7344;50.864;4.362;2023-09-30T05:20:05;13.10;99.90
14517;DHT22;7344;50.864;4.362;2023-09-30T05:22:33;13.10;99.90
14517;DHT22;7344;50.864;4.362;2023-09-30T05:24:59;13.10;99.90
14517;DHT22;7344;50.864;4.362;2023-09-30T05:27:24;13.10;99.90
14517;DHT22;7344;50.864;4.362;2023-09-30T05:29:50;13.00;99.90
14517;DHT22;7344;50.864;4.362;2023-09-30T05:32:15;13.10;99.90
14517;DHT22;7344;50.864;4.362;2023-09-30T05:34:41;13.10;99.90
14517;DHT22;7344;50.864;4.362;2023-09-30T05:37:07;13.10;99.90
14517;DHT22;7344;50.864;4.362;2023-09-30T05:39:32;13.00;99.90
14517;DHT22;7344;50.864;4.362;2023-09-30T05:41:58;13.00;99.90
14517;DHT22;7344;50.864;4.362;2023-09-30T05:44:24;13.00;99.90
14517;DHT22;7344;50.864;4.362;2023-09-30T05:46:51;13.00;99.90
14517;DHT22;7344;50.864;4.362;2023-09-30T05:49:17;13.10;99.90
14517;DHT22;7344;50.864;4.362;2023-09-30T05:51:45;13.10;99.90
14517;DHT22;7344;50.864;4.362;2023-09-30T05:54:12;13.10;99.90
14517;DHT22;7344;50.864;4.362;2023-09-30T05:56:38;13.10;99.90
14517;DHT22;7344;50.864;4.362;2023-09-30T05:59:04;13.10;99.90
14517;DHT22;7344;50.864;4.362;2023-09-30T06:01:31;13.20;99.90
14517;DHT22;7344;50.864;4.362;2023-09-30T06:04:00;13.20;99.90
14517;DHT22;7344;50.864;4.362;2023-09-30T06:06:27;13.30;99.90
14517;DHT22;7344;50.864;4.362;2023-09-30T06:08:59;13.40;99.90
14517;DHT22;7344;50.864;4.362;2023-09-30T06:11:25;13.50;99.90
14517;DHT22;7344;50.864;4.362;2023-09-30T06:13:59;13.50;99.90
14517;DHT22;7344;50.864;4.362;2023-09-30T06:16:26;13.70;99.90
14517;DHT22;7344;50.864;4.362;2023-09-30T06:18:53;13.80;99.90
14517;DHT22;7344;50.864;4.362;2023-09-30T06:21:24;14.00;99.90
14517;DHT22;7344;50.864;4.362;2023-09-30T06:23:50;14.10;99.90
14517;DHT22;7344;50.864;4.362;2023-09-30T06:26:19;14.30;99.90
14517;DHT22;7344;50.864;4.362;2023-09-30T06:28:46;14.40;99.90
14517;DHT22;7344;50.864;4.362;2023-09-30T06:31:13;14.40;99.90
14517;DHT22;7344;50.864;4.362;2023-09-30T06:33:39;14.50;99.90
14517;DHT22;7344;50.864;4.362;2023-09-30T06:36:09;14.60;99.90
14517;DHT22;7344;50.864;4.362;2023-09-30T06:38:34;14.60;99.90
14517;DHT22;7344;50.864;4.362;2023-09-30T06:41:02;14.60;99.90
14517;DHT22;7344;50.864;4.362;2023-09-30T06:43:28;14.80;99.90
14517;DHT22;7344;50.864;4.362;2023-09-30T06:45:53;14.90;99.90
14517;DHT22;7344;50.864;4.362;2023-09-30T06:48:20;15.30;99.90
14517;DHT22;7344;50.864;4.362;2023-09-30T06:50:47;15.50;99.90
14517;DHT22;7344;50.864;4.362;2023-09-30T06:53:17;15.80;99.90
14517;DHT22;7344;50.864;4.362;2023-09-30T06:55:47;16.40;99.90
14517;DHT22;7344;50.864;4.362;2023-09-30T06:58:13;16.90;96.80
14517;DHT22;7344;50.864;4.362;2023-09-30T07:00:40;17.70;90.10
14517;DHT22;7344;50.864;4.362;2023-09-30T07:03:06;19.00;56.60
14517;DHT22;7344;50.864;4.362;2023-09-30T07:05:36;19.90;23.80
14517;DHT22;7344;50.864;4.362;2023-09-30T07:08:02;20.80;2.90
14517;DHT22;7344;50.864;4.362;2023-09-30T07:10:28;21.20;1.00
14517;DHT22;7344;50.864;4.362;2023-09-30T07:12:57;21.40;1.00
14517;DHT22;7344;50.864;4.362;2023-09-30T07:15:23;21.70;1.00
14517;DHT22;7344;50.864;4.362;2023-09-30T07:17:48;21.90;1.00
14517;DHT22;7344;50.864;4.362;2023-09-30T07:20:14;22.10;1.00
14517;DHT22;7344;50.864;4.362;2023-09-30T07:22:40;22.70;99.90
14517;DHT22;7344;50.864;4.362;2023-09-30T07:25:07;23.70;99.90
14517;DHT22;7344;50.864;4.362;2023-09-30T07:27:33;23.30;99.60
14517;DHT22;7344;50.864;4.362;2023-09-30T07:29:59;23.60;99.10
14517;DHT22;7344;50.864;4.362;2023-09-30T07:32:26;23.70;98.70
14517;DHT22;7344;50.864;4.362;2023-09-30T07:34:51;23.70;98.50
14517;DHT22;7344;50.864;4.362;2023-09-30T07:37:17;23.70;98.80
14517;DHT22;7344;50.864;4.362;2023-09-30T07:39:44;24.10;97.90
14517;DHT22;7344;50.864;4.362;2023-09-30T07:42:09;24.50;96.50
14517;DHT22;7344;50.864;4.362;2023-09-30T07:44:35;23.70;98.00
14517;DHT22;7344;50.864;4.362;2023-09-30T07:47:04;24.40;97.10
14517;DHT22;7344;50.864;4.362;2023-09-30T07:49:34;25.60;94.80
14517;DHT22;7344;50.864;4.362;2023-09-30T07:52:00;25.40;93.60
14517;DHT22;7344;50.864;4.362;2023-09-30T07:54:26;25.80;93.00
14517;DHT22;7344;50.864;4.362;2023-09-30T07:56:51;26.30;91.10
14517;DHT22;7344;50.864;4.362;2023-09-30T07:59:17;26.80;90.30
14517;DHT22;7344;50.864;4.362;2023-09-30T08:01:43;27.10;87.10
14517;DHT22;7344;50.864;4.362;2023-09-30T08:04:09;26.50;89.50
14517;DHT22;7344;50.864;4.362;2023-09-30T08:06:34;26.70;88.60
14517;DHT22;7344;50.864;4.362;2023-09-30T08:09:00;26.30;90.10
14517;DHT22;7344;50.864;4.362;2023-09-30T08:11:26;26.20;90.00
14517;DHT22;7344;50.864;4.362;2023-09-30T08:13:56;26.00;90.50
14517;DHT22;7344;50.864;4.362;2023-09-30T08:16:24;26.00;90.20
14517;DHT22;7344;50.864;4.362;2023-09-30T08:18:50;26.60;88.90
14517;DHT22;7344;50.864;4.362;2023-09-30T08:21:15;27.20;84.40
14517;DHT22;7344;50.864;4.362;2023-09-30T08:23:41;27.20;84.50
14517;DHT22;7344;50.864;4.362;2023-09-30T08:26:06;27.00;85.50
14517;DHT22;7344;50.864;4.362;2023-09-30T08:28:32;26.00;89.40
14517;DHT22;7344;50.864;4.362;2023-09-30T08:31:05;26.20;90.60
14517;DHT22;7344;50.864;4.362;2023-09-30T08:33:31;26.80;89.10
14517;DHT22;7344;50.864;4.362;2023-09-30T08:36:03;27.50;84.50
14517;DHT22;7344;50.864;4.362;2023-09-30T08:38:36;28.20;81.00
14517;DHT22;7344;50.864;4.362;2023-09-30T08:41:02;28.70;77.90
14517;DHT22;7344;50.864;4.362;2023-09-30T08:43:28;28.60;76.30
14517;DHT22;7344;50.864;4.362;2023-09-30T08:45:56;28.80;76.00
14517;DHT22;7344;50.864;4.362;2023-09-30T08:48:28;28.00;77.60
14517;DHT22;7344;50.864;4.362;2023-09-30T08:50:56;28.80;76.30
14517;DHT22;7344;50.864;4.362;2023-09-30T08:53:23;28.90;75.80
14517;DHT22;7344;50.864;4.362;2023-09-30T08:55:53;29.20;71.90
14517;DHT22;7344;50.864;4.362;2023-09-30T08:58:19;28.60;72.90
14517;DHT22;7344;50.864;4.362;2023-09-30T09:00:48;28.50;75.00
14517;DHT22;7344;50.864;4.362;2023-09-30T09:03:14;28.30;75.50
14517;DHT22;7344;50.864;4.362;2023-09-30T09:05:40;28.80;74.50
14517;DHT22;7344;50.864;4.362;2023-09-30T09:08:06;28.60;74.00
14517;DHT22;7344;50.864;4.362;2023-09-30T09:10:31;28.10;75.10
14517;DHT22;7344;50.864;4.362;2023-09-30T09:12:58;28.30;75.50
14517;DHT22;7344;50.864;4.362;2023-09-30T09:15:26;28.30;76.50
14517;DHT22;7344;50.864;4.362;2023-09-30T09:17:52;27.70;76.20
14517;DHT22;7344;50.864;4.362;2023-09-30T09:20:23;27.40;79.00
14517;DHT22;7344;50.864;4.362;2023-09-30T09:22:54;27.80;79.30
14517;DHT22;7344;50.864;4.362;2023-09-30T09:25:22;27.90;79.30
14517;DHT22;7344;50.864;4.362;2023-09-30T09:27:52;28.10;78.00
14517;DHT22;7344;50.864;4.362;2023-09-30T09:30:26;28.00;77.70
14517;DHT22;7344;50.864;4.362;2023-09-30T09:35:20;27.00;80.90
14517;DHT22;7344;50.864;4.362;2023-09-30T09:38:06;27.30;82.10
14517;DHT22;7344;50.864;4.362;2023-09-30T09:40:36;26.60;82.90
14517;DHT22;7344;50.864;4.362;2023-09-30T09:43:04;26.80;84.50
14517;DHT22;7344;50.864;4.362;2023-09-30T09:45:33;26.80;84.80
14517;DHT22;7344;50.864;4.362;2023-09-30T09:47:59;26.90;83.00
14517;DHT22;7344;50.864;4.362;2023-09-30T09:50:26;27.00;81.60
14517;DHT22;7344;50.864;4.362;2023-09-30T09:52:53;27.40;80.20
14517;DHT22;7344;50.864;4.362;2023-09-30T09:55:22;27.50;78.50
14517;DHT22;7344;50.864;4.362;2023-09-30T09:57:49;28.30;76.20
14517;DHT22;7344;50.864;4.362;2023-09-30T10:00:20;28.00;77.40
14517;DHT22;7344;50.864;4.362;2023-09-30T10:02:46;27.80;77.50
14517;DHT22;7344;50.864;4.362;2023-09-30T10:05:13;27.90;75.10
14517;DHT22;7344;50.864;4.362;2023-09-30T10:07:57;27.50;78.90
14517;DHT22;7344;50.864;4.362;2023-09-30T10:10:26;27.90;76.70
14517;DHT22;7344;50.864;4.362;2023-09-30T10:12:53;27.50;76.10
14517;DHT22;7344;50.864;4.362;2023-09-30T10:20:41;27.20;80.80
14517;DHT22;7344;50.864;4.362;2023-09-30T10:23:21;27.90;77.90
14517;DHT22;7344;50.864;4.362;2023-09-30T10:25:51;27.90;77.70
14517;DHT22;7344;50.864;4.362;2023-09-30T10:28:39;27.40;76.30
14517;DHT22;7344;50.864;4.362;2023-09-30T10:31:15;26.90;78.40
14517;DHT22;7344;50.864;4.362;2023-09-30T10:36:35;26.20;82.60
14517;DHT22;7344;50.864;4.362;2023-09-30T10:39:01;26.30;83.90
14517;DHT22;7344;50.864;4.362;2023-09-30T10:46:51;25.80;87.00
14517;DHT22;7344;50.864;4.362;2023-09-30T10:51:56;25.70;86.50
14517;DHT22;7344;50.864;4.362;2023-09-30T10:54:23;26.20;85.90
14517;DHT22;7344;50.864;4.362;2023-09-30T10:56:49;26.10;85.00
14517;DHT22;7344;50.864;4.362;2023-09-30T10:59:24;26.10;81.70
14517;DHT22;7344;50.864;4.362;2023-09-30T11:01:51;25.70;84.90
14517;DHT22;7344;50.864;4.362;2023-09-30T11:04:20;25.90;84.50
14517;DHT22;7344;50.864;4.362;2023-09-30T11:06:46;26.30;80.50
14517;DHT22;7344;50.864;4.362;2023-09-30T11:09:19;26.40;80.60
14517;DHT22;7344;50.864;4.362;2023-09-30T11:11:47;25.90;80.90
14517;DHT22;7344;50.864;4.362;2023-09-30T11:14:29;25.80;82.00
14517;DHT22;7344;50.864;4.362;2023-09-30T11:17:00;26.30;80.60
14517;DHT22;7344;50.864;4.362;2023-09-30T11:19:45;26.50;78.50
14517;DHT22;7344;50.864;4.362;2023-09-30T11:22:12;26.20;77.70
14517;DHT22;7344;50.864;4.362;2023-09-30T11:24:38;24.90;83.90
14517;DHT22;7344;50.864;4.362;2023-09-30T11:27:03;24.60;87.50
14517;DHT22;7344;50.864;4.362;2023-09-30T11:29:29;23.70;56.90
14517;DHT22;7344;50.864;4.362;2023-09-30T11:31:55;23.50;99.90
14517;DHT22;7344;50.864;4.362;2023-09-30T11:34:34;23.80;99.90
14517;DHT22;7344;50.864;4.362;2023-09-30T11:37:01;24.60;99.90
14517;DHT22;7344;50.864;4.362;2023-09-30T11:39:29;25.20;89.40
14517;DHT22;7344;50.864;4.362;2023-09-30T11:41:55;24.80;88.30
14517;DHT22;7344;50.864;4.362;2023-09-30T11:44:23;25.40;87.10
14517;DHT22;7344;50.864;4.362;2023-09-30T11:46:58;25.90;84.50
14517;DHT22;7344;50.864;4.362;2023-09-30T11:49:34;26.10;83.40
14517;DHT22;7344;50.864;4.362;2023-09-30T11:52:03;26.20;81.70
14517;DHT22;7344;50.864;4.362;2023-09-30T11:54:42;25.80;83.70
14517;DHT22;7344;50.864;4.362;2023-09-30T11:57:14;24.90;85.70
14517;DHT22;7344;50.864;4.362;2023-09-30T11:59:45;24.00;84.90
14517;DHT22;7344;50.864;4.362;2023-09-30T12:02:12;23.20;1.00
14517;DHT22;7344;50.864;4.362;2023-09-30T12:04:38;23.70;43.70
14517;DHT22;7344;50.864;4.362;2023-09-30T12:07:04;23.80;99.90
14517;DHT22;7344;50.864;4.362;2023-09-30T12:09:32;24.00;99.90
14517;DHT22;7344;50.864;4.362;2023-09-30T12:12:00;24.20;26.10
14517;DHT22;7344;50.864;4.362;2023-09-30T12:14:26;24.50;85.00
14517;DHT22;7344;50.864;4.362;2023-09-30T12:16:51;24.70;84.50
14517;DHT22;7344;50.864;4.362;2023-09-30T12:19:18;24.70;84.30
14517;DHT22;7344;50.864;4.362;2023-09-30T12:21:44;24.40;87.00
14517;DHT22;7344;50.864;4.362;2023-09-30T12:24:12;23.80;90.10
14517;DHT22;7344;50.864;4.362;2023-09-30T12:26:45;23.40;90.80
14517;DHT22;7344;50.864;4.362;2023-09-30T12:29:17;23.30;90.30
14517;DHT22;7344;50.864;4.362;2023-09-30T12:31:44;23.20;90.20
14517;DHT22;7344;50.864;4.362;2023-09-30T12:34:14;23.30;90.50
14517;DHT22;7344;50.864;4.362;2023-09-30T12:36:41;23.40;88.90
14517;DHT22;7344;50.864;4.362;2023-09-30T12:39:07;23.30;91.00
14517;DHT22;7344;50.864;4.362;2023-09-30T12:41:44;23.30;91.20
14517;DHT22;7344;50.864;4.362;2023-09-30T12:44:11;23.00;89.70
14517;DHT22;7344;50.864;4.362;2023-09-30T12:46:37;23.10;89.00
14517;DHT22;7344;50.864;4.362;2023-09-30T12:49:07;23.30;87.80
14517;DHT22;7344;50.864;4.362;2023-09-30T12:51:34;23.40;87.70
14517;DHT22;7344;50.864;4.362;2023-09-30T12:54:00;23.20;90.00
14517;DHT22;7344;50.864;4.362;2023-09-30T12:56:26;22.40;1.00
14517;DHT22;7344;50.864;4.362;2023-09-30T12:58:52;22.60;1.00
14517;DHT22;7344;50.864;4.362;2023-09-30T13:01:19;22.70;1.00
14517;DHT22;7344;50.864;4.362;2023-09-30T13:03:46;22.90;1.00
14517;DHT22;7344;50.864;4.362;2023-09-30T13:06:11;22.90;1.00
14517;DHT22;7344;50.864;4.362;2023-09-30T13:08:37;23.00;1.00
14517;DHT22;7344;50.864;4.362;2023-09-30T13:11:04;22.90;99.90
14517;DHT22;7344;50.864;4.362;2023-09-30T13:13:31;22.80;1.00
14517;DHT22;7344;50.864;4.362;2023-09-30T13:16:01;23.00;1.00
14517;DHT22;7344;50.864;4.362;2023-09-30T13:18:27;23.00;1.00
14517;DHT22;7344;50.864;4.362;2023-09-30T13:20:53;22.80;1.00
14517;DHT22;7344;50.864;4.362;2023-09-30T13:23:20;22.90;88.40
14517;DHT22;7344;50.864;4.362;2023-09-30T13:25:45;22.70;87.30
14517;DHT22;7344;50.864;4.362;2023-09-30T13:28:11;22.60;89.10
14517;DHT22;7344;50.864;4.362;2023-09-30T13:30:37;22.40;90.30
14517;DHT22;7344;50.864;4.362;2023-09-30T13:33:03;22.20;90.40
14517;DHT22;7344;50.864;4.362;2023-09-30T13:35:29;22.20;88.40
14517;DHT22;7344;50.864;4.362;2023-09-30T13:37:54;22.10;89.40
14517;DHT22;7344;50.864;4.362;2023-09-30T13:40:20;21.90;91.00
14517;DHT22;7344;50.864;4.362;2023-09-30T13:42:46;22.00;91.30
14517;DHT22;7344;50.864;4.362;2023-09-30T13:45:12;21.90;91.30
14517;DHT22;7344;50.864;4.362;2023-09-30T13:47:38;21.90;91.20
14517;DHT22;7344;50.864;4.362;2023-09-30T13:50:04;22.10;91.30
14517;DHT22;7344;50.864;4.362;2023-09-30T13:52:33;22.10;91.90
14517;DHT22;7344;50.864;4.362;2023-09-30T13:54:59;22.40;91.90
14517;DHT22;7344;50.864;4.362;2023-09-30T13:57:25;22.40;92.10
14517;DHT22;7344;50.864;4.362;2023-09-30T13:59:50;22.50;92.40
14517;DHT22;7344;50.864;4.362;2023-09-30T14:02:16;22.60;92.80
14517;DHT22;7344;50.864;4.362;2023-09-30T14:04:42;22.60;99.90
14517;DHT22;7344;50.864;4.362;2023-09-30T14:07:07;22.40;99.90
14517;DHT22;7344;50.864;4.362;2023-09-30T14:09:33;22.30;99.90
14517;DHT22;7344;50.864;4.362;2023-09-30T14:11:59;22.30;91.90
14517;DHT22;7344;50.864;4.362;2023-09-30T14:14:25;21.70;91.70
14517;DHT22;7344;50.864;4.362;2023-09-30T14:16:51;21.60;92.20
14517;DHT22;7344;50.864;4.362;2023-09-30T14:19:17;21.40;93.20
14517;DHT22;7344;50.864;4.362;2023-09-30T14:21:43;21.20;93.70
14517;DHT22;7344;50.864;4.362;2023-09-30T14:24:08;21.40;1.00
14517;DHT22;7344;50.864;4.362;2023-09-30T14:26:34;21.80;92.90
14517;DHT22;7344;50.864;4.362;2023-09-30T14:29:00;21.80;92.90
14517;DHT22;7344;50.864;4.362;2023-09-30T14:31:26;21.60;93.40
14517;DHT22;7344;50.864;4.362;2023-09-30T14:33:51;21.50;94.30
14517;DHT22;7344;50.864;4.362;2023-09-30T14:36:18;21.80;94.20
14517;DHT22;7344;50.864;4.362;2023-09-30T14:38:47;21.90;94.00
14517;DHT22;7344;50.864;4.362;2023-09-30T14:41:12;21.90;94.60
14517;DHT22;7344;50.864;4.362;2023-09-30T14:43:38;21.90;94.60
14517;DHT22;7344;50.864;4.362;2023-09-30T14:46:04;21.80;94.10
14517;DHT22;7344;50.864;4.362;2023-09-30T14:48:30;21.90;93.70
14517;DHT22;7344;50.864;4.362;2023-09-30T14:50:56;21.60;94.40
14517;DHT22;7344;50.864;4.362;2023-09-30T14:53:22;21.20;95.60
14517;DHT22;7344;50.864;4.362;2023-09-30T14:55:48;21.00;95.90
14517;DHT22;7344;50.864;4.362;2023-09-30T14:58:14;20.80;96.50
14517;DHT22;7344;50.864;4.362;2023-09-30T15:00:39;20.80;96.70
14517;DHT22;7344;50.864;4.362;2023-09-30T15:03:05;20.70;97.40
14517;DHT22;7344;50.864;4.362;2023-09-30T15:05:32;20.70;97.50
14517;DHT22;7344;50.864;4.362;2023-09-30T15:07:58;20.90;96.90
14517;DHT22;7344;50.864;4.362;2023-09-30T15:10:25;20.90;97.00
14517;DHT22;7344;50.864;4.362;2023-09-30T15:12:50;21.00;96.20
14517;DHT22;7344;50.864;4.362;2023-09-30T15:15:16;21.10;96.20
14517;DHT22;7344;50.864;4.362;2023-09-30T15:17:42;21.10;96.00
14517;DHT22;7344;50.864;4.362;2023-09-30T15:20:08;21.10;95.70
14517;DHT22;7344;50.864;4.362;2023-09-30T15:22:34;21.00;96.20
14517;DHT22;7344;50.864;4.362;2023-09-30T15:25:01;21.00;95.90
14517;DHT22;7344;50.864;4.362;2023-09-30T15:27:27;20.90;96.20
14517;DHT22;7344;50.864;4.362;2023-09-30T15:29:52;20.80;96.40
14517;DHT22;7344;50.864;4.362;2023-09-30T15:32:18;20.70;97.00
14517;DHT22;7344;50.864;4.362;2023-09-30T15:34:44;20.70;97.40
14517;DHT22;7344;50.864;4.362;2023-09-30T15:37:09;20.60;98.00
14517;DHT22;7344;50.864;4.362;2023-09-30T15:39:39;20.60;98.30
14517;DHT22;7344;50.864;4.362;2023-09-30T15:42:06;20.70;98.60
14517;DHT22;7344;50.864;4.362;2023-09-30T15:44:34;20.60;98.30
14517;DHT22;7344;50.864;4.362;2023-09-30T15:47:00;20.70;98.40
14517;DHT22;7344;50.864;4.362;2023-09-30T15:49:25;20.70;98.80
14517;DHT22;7344;50.864;4.362;2023-09-30T15:51:51;20.70;97.30
14517;DHT22;7344;50.864;4.362;2023-09-30T15:54:16;20.70;97.40
14517;DHT22;7344;50.864;4.362;2023-09-30T15:56:42;20.50;97.10
14517;DHT22;7344;50.864;4.362;2023-09-30T15:59:08;20.60;97.40
14517;DHT22;7344;50.864;4.362;2023-09-30T16:01:37;20.50;97.80
14517;DHT22;7344;50.864;4.362;2023-09-30T16:04:03;20.50;98.10
14517;DHT22;7344;50.864;4.362;2023-09-30T16:06:28;20.60;98.40
14517;DHT22;7344;50.864;4.362;2023-09-30T16:08:54;20.70;98.30